Denver, CO (80261)

5:43 PM MDT on April 21, 2015 (GMT -0600)
Wash Park | | Change Station
CLOSE
Current Station
Personal Weather Station
Location: Denver, CO
Elevation: 5348 ft
Nearby Weather Stations

Elev 5348 ft 39.69 °N, 104.97 °W | Updated 15 seconds ago

Mostly Cloudy
Mostly Cloudy
63.0 °F
Feels Like 63.0 °F
N
1.2
Wind Variable Wind from SE
Gusts 5.0 mph

Today
High -- | Low -- °F
--% Chance of Precip.
Yesterday
High -- | Low -- °F
Precip. -- in
6:14 AM 7:43 PM
Waxing Crescent, 13% visible
Pressure 29.85 in
Visibility 10.0 miles
Clouds Scattered Clouds 11000 ft
Scattered Clouds 15000 ft
Mostly Cloudy 25000 ft
Dew Point 29 °F
Humidity 28%
Rainfall 0.01 in
Snow Depth Not available.
UV 2 out of 12
Pollen 10.70 out of 12
Air Quality Not available.
Flu Activity Local Activity
METAR KAPA 212253Z 36006G15KT 10SM SCT110 SCT150 BKN250 17/M02 A2991 RMK AO2 SLP108 VIRGA DSNT SW-NW T01671017

More Conditions Fewer Conditions

Pressure 29.85 in
Visibility 10.0 miles
Clouds Scattered Clouds 11000 ft
Scattered Clouds 15000 ft
Mostly Cloudy 25000 ft
Dew Point 29 °F
Humidity 28%
Rainfall 0.01 in
Snow Depth Not available.
UV 2 out of 12
Pollen 10.70 out of 12
Air Quality Not available.
Flu Activity Local Activity
METAR KAPA 212253Z 36006G15KT 10SM SCT110 SCT150 BKN250 17/M02 A2991 RMK AO2 SLP108 VIRGA DSNT SW-NW T01671017

More Conditions Fewer Conditions

10-Day Weather Forecast

Almanac

Astronomy

Apr. 21, 2015 Rise Set
Actual Time
Civil Twilight
Nautical Twilight
Astronomical Twilight
Moon
Length of Visible Light
Length of Day
Tomorrow will be .
, % of the Moon is Illuminated

Today's Extremes

State Highs State Lows

Community

WunderPhotos

Upload Photos

1,815,583 photos uploaded!

WunderBlogs® & News

Nearby

Air Quality

  Air Quality AQ Index Pollutant
Not available.

Snow Depth

Station Depth Elevation

Earthquake Activity

City Distance Mag. Time & Date
Minimum magnitude displayed is 2.5.

Coastal Water Temperatures

Place Temperature

Stations

Nearby Weather Stations

Station Location Temp. Windchill Dew Point Humidity Wind Precip. Elev Updated Type